Time;durP1;ratioP1;P1;durP2;ratioP2;P2;SDS_P1;SDS_P2;PMS_P1;PMS_P2;Temp;Humidity;BMP_temperature;BMP_pressure;BME280_temperature;BME280_humidity;BME280_pressure;Samples;Min_cycle;Max_cycle;Signal;HPM_P1;HPM_P2
2022/04/04 00:01:16;;;;;;;39.33;11.10;;;;;;;-0.53;71.13;96583.41;5104303;28;20060;-74
2022/04/04 00:03:43;;;;;;;42.42;8.95;;;;;;;-0.57;71.54;96577.75;5106392;28;20055;-73
2022/04/04 00:06:10;;;;;;;33.47;9.05;;;;;;;-0.60;71.83;96580.91;5105476;28;20047;-74
2022/04/04 00:08:36;;;;;;;47.80;12.57;;;;;;;-0.62;71.98;96577.69;5106428;28;20063;-74
2022/04/04 00:11:03;;;;;;;52.53;11.38;;;;;;;-0.63;72.32;96570.69;5106225;28;20055;-74
2022/04/04 00:13:31;;;;;;;116.85;25.45;;;;;;;-0.63;72.29;96575.22;5106640;28;20055;-74
2022/04/04 00:15:57;;;;;;;58.58;11.38;;;;;;;-0.66;72.35;96571.19;5106960;28;20062;-75
2022/04/04 00:18:24;;;;;;;18.45;7.50;;;;;;;-0.70;72.46;96567.38;5105853;28;20040;-74
2022/04/04 00:20:50;;;;;;;43.47;9.18;;;;;;;-0.71;72.73;96570.28;5107063;28;20050;-74
2022/04/04 00:23:17;;;;;;;29.60;9.27;;;;;;;-0.73;72.89;96567.03;5105603;28;20071;-77
2022/04/04 00:25:45;;;;;;;75.88;16.92;;;;;;;-0.74;73.17;96565.41;5107203;28;20059;-74
2022/04/04 00:28:13;;;;;;;28.33;8.75;;;;;;;-0.74;73.42;96565.41;5106109;28;20065;-74
2022/04/04 00:30:41;;;;;;;16.67;9.18;;;;;;;-0.76;73.51;96562.97;5106680;28;20711;-75
2022/04/04 00:33:08;;;;;;;13.55;7.97;;;;;;;-0.77;73.45;96565.91;5106190;28;20056;-75
2022/04/04 00:35:35;;;;;;;58.42;12.63;;;;;;;-0.76;73.49;96562.19;5106368;28;20051;-75
2022/04/04 00:38:03;;;;;;;43.20;9.27;;;;;;;-0.78;73.15;96565.09;5106488;28;20672;-74
2022/04/04 00:40:30;;;;;;;46.88;8.18;;;;;;;-0.79;73.10;96563.44;5085940;28;20043;-74
2022/04/04 00:42:56;;;;;;;50.08;9.25;;;;;;;-0.83;73.37;96557.78;5088248;28;20113;-74
2022/04/04 00:45:23;;;;;;;101.30;21.15;;;;;;;-0.86;73.70;96560.94;5085175;28;20066;-75
2022/04/04 00:47:51;;;;;;;45.88;9.10;;;;;;;-0.88;74.12;96560.38;5086360;28;20048;-74
2022/04/04 00:50:18;;;;;;;37.17;9.13;;;;;;;-0.91;74.10;96552.81;5084934;28;20119;-74
2022/04/04 00:52:45;;;;;;;48.10;8.07;;;;;;;-0.92;74.15;96553.88;5088395;28;20048;-75
2022/04/04 00:55:11;;;;;;;41.85;8.63;;;;;;;-0.96;74.06;96550.06;5089004;28;20048;-77
2022/04/04 00:57:38;;;;;;;67.05;12.40;;;;;;;-0.99;74.11;96542.53;5089291;28;20052;-74
2022/04/04 01:00:07;;;;;;;21.33;9.40;;;;;;;-1.01;74.21;96544.63;5089093;27;20060;-74
2022/04/04 01:02:33;;;;;;;24.75;9.70;;;;;;;-1.03;74.49;96541.38;5090337;28;20048;-74
2022/04/04 01:05:01;;;;;;;27.55;8.15;;;;;;;-1.05;74.80;96544.28;5090358;28;20056;-74
2022/04/04 01:07:29;;;;;;;26.95;8.77;;;;;;;-1.05;74.96;96543.47;5109171;28;20401;-75
2022/04/04 01:09:55;;;;;;;44.13;9.40;;;;;;;-1.07;74.83;96540.25;5109833;28;20062;-74
2022/04/04 01:12:22;;;;;;;39.88;9.50;;;;;;;-1.08;75.10;96535.94;5108899;28;20524;-75
2022/04/04 01:14:49;;;;;;;35.88;10.82;;;;;;;-1.08;75.09;96533.28;5109576;28;20049;-74
2022/04/04 01:17:17;;;;;;;30.20;8.75;;;;;;;-1.12;75.28;96527.59;5108629;28;20056;-74
2022/04/04 01:19:43;;;;;;;60.13;11.63;;;;;;;-1.12;75.58;96534.81;5108724;28;20516;-74
2022/04/04 01:22:13;;;;;;;31.17;10.18;;;;;;;-1.13;75.44;96527.84;5109338;28;20052;-74
2022/04/04 01:24:42;;;;;;;43.50;10.10;;;;;;;-1.14;75.00;96536.91;5109424;28;20078;-74
2022/04/04 01:27:11;;;;;;;27.35;9.30;;;;;;;-1.17;74.83;96532.03;5109400;28;20420;-74
2022/04/04 01:29:38;;;;;;;34.80;8.90;;;;;;;-1.20;74.71;96529.81;5108501;28;20048;-75
2022/04/04 01:32:06;;;;;;;48.97;9.30;;;;;;;-1.22;74.70;96531.94;5109378;28;20060;-75
2022/04/04 01:34:33;;;;;;;60.35;12.23;;;;;;;-1.25;75.11;96529.72;5109650;28;20138;-75
2022/04/04 01:37:00;;;;;;;98.03;17.67;;;;;;;-1.28;75.41;96520.34;5109757;28;20055;-75
2022/04/04 01:39:26;;;;;;;35.85;9.75;;;;;;;-1.29;75.66;96518.72;5108566;28;20047;-75
2022/04/04 01:41:54;;;;;;;77.00;11.80;;;;;;;-1.30;75.73;96513.63;5108787;28;20060;-74
2022/04/04 01:44:21;;;;;;;53.90;15.50;;;;;;;-1.31;75.65;96507.44;5108912;28;20743;-74
2022/04/04 01:46:47;;;;;;;153.00;37.55;;;;;;;-1.33;75.62;96510.38;5108785;28;20066;-74
2022/04/04 01:49:14;;;;;;;146.43;42.25;;;;;;;-1.34;75.51;96514.09;5108938;28;20059;-74
2022/04/04 01:51:40;;;;;;;135.75;40.60;;;;;;;-1.38;75.38;96502.25;5108088;28;20051;-74
2022/04/04 01:54:09;;;;;;;84.80;25.73;;;;;;;-1.41;75.52;96502.75;5108833;28;20387;-76
2022/04/04 01:56:35;;;;;;;73.18;16.48;;;;;;;-1.44;75.58;96508.56;5108259;28;20056;-74
2022/04/04 01:59:04;;;;;;;46.08;15.00;;;;;;;-1.48;75.65;96504.72;5108735;28;20047;-74
2022/04/04 02:01:34;;;;;;;57.65;13.68;;;;;;;-1.49;75.77;96503.13;5108164;28;20707;-76
2022/04/04 02:04:01;;;;;;;124.20;26.92;;;;;;;-1.49;75.91;96500.44;5108465;28;20100;-76
2022/04/04 02:06:28;;;;;;;86.53;19.83;;;;;;;-1.50;75.92;96498.84;5108445;28;20043;-76
2022/04/04 02:08:55;;;;;;;133.18;29.77;;;;;;;-1.53;76.01;96499.28;5108323;28;20051;-76
2022/04/04 02:11:23;;;;;;;151.57;37.10;;;;;;;-1.55;76.14;96506.75;5108110;28;20055;-76
2022/04/04 02:13:49;;;;;;;140.95;31.25;;;;;;;-1.55;76.49;96500.59;5107679;28;20044;-78
2022/04/04 02:16:17;;;;;;;112.93;26.83;;;;;;;-1.57;76.53;96500.81;5108395;28;20052;-76
2022/04/04 02:18:44;;;;;;;62.00;19.83;;;;;;;-1.57;76.85;96498.13;5108267;28;20588;-76
2022/04/04 02:21:11;;;;;;;82.80;19.10;;;;;;;-1.59;76.74;96489.56;5107883;28;20047;-76
2022/04/04 02:23:38;;;;;;;69.70;18.05;;;;;;;-1.62;76.66;96482.03;5107656;28;20079;-76
2022/04/04 02:26:05;;;;;;;112.55;21.50;;;;;;;-1.66;76.65;96486.25;5107370;28;20130;-76
2022/04/04 02:28:32;;;;;;;83.18;16.92;;;;;;;-1.67;76.54;96484.59;5107899;28;20050;-76
2022/04/04 02:30:59;;;;;;;80.05;11.07;;;;;;;-1.68;76.61;96482.97;5107466;28;20051;-74
2022/04/04 02:33:27;;;;;;;58.42;10.10;;;;;;;-1.70;76.37;96485.09;5107452;28;20054;-75
2022/04/04 02:35:54;;;;;;;52.97;10.65;;;;;;;-1.73;76.51;96488.22;5107256;28;20078;-74
2022/04/04 02:38:23;;;;;;;46.40;10.32;;;;;;;-1.74;76.27;96484.72;5107690;28;20047;-74
2022/04/04 02:40:50;;;;;;;43.78;9.65;;;;;;;-1.75;76.43;96485.78;5106695;28;20044;-74
2022/04/04 02:43:18;;;;;;;51.30;9.73;;;;;;;-1.75;76.55;96490.31;5107278;28;20055;-77
2022/04/04 02:45:45;;;;;;;78.43;12.32;;;;;;;-1.76;76.63;96481.50;5105590;28;20055;-75
2022/04/04 02:48:11;;;;;;;67.65;11.68;;;;;;;-1.77;76.52;96473.75;5107060;28;20516;-74
2022/04/04 02:50:39;;;;;;;135.73;33.20;;;;;;;-1.78;76.58;96474.75;5106649;28;20051;-73
2022/04/04 02:53:06;;;;;;;66.18;10.40;;;;;;;-1.82;76.42;96466.44;5106536;28;20055;-74
2022/04/04 02:58:17;;;;;;;44.70;9.88;;;;;;;-1.87;76.40;96472.47;5106392;28;20059;-74
2022/04/04 03:00:44;;;;;;;61.92;10.38;;;;;;;-1.88;76.57;96468.19;5107687;28;20043;-76
2022/04/04 03:03:11;;;;;;;52.25;10.05;;;;;;;-1.92;76.54;96463.56;5106514;28;20051;-74
2022/04/04 03:05:39;;;;;;;81.40;15.30;;;;;;;-1.93;76.65;96462.75;5107370;28;20047;-77
2022/04/04 03:08:06;;;;;;;52.65;11.25;;;;;;;-1.93;76.44;96467.25;5106311;28;20043;-76
2022/04/04 03:10:33;;;;;;;72.47;13.90;;;;;;;-1.93;76.78;96461.91;5106928;28;20055;-77
2022/04/04 03:13:02;;;;;;;20.88;9.88;;;;;;;-1.95;76.70;96462.16;5107190;28;20098;-76
2022/04/04 03:15:29;;;;;;;150.25;37.17;;;;;;;-1.94;77.12;96463.78;5106337;28;20047;-76
2022/04/04 03:17:57;;;;;;;65.63;16.60;;;;;;;-1.96;76.86;96468.56;5107478;28;20063;-74
2022/04/04 03:20:26;;;;;;;96.78;16.90;;;;;;;-1.96;76.90;96463.22;5105782;28;20101;-74
2022/04/04 03:22:56;;;;;;;81.53;14.02;;;;;;;-1.97;76.71;96468.78;5107710;28;20054;-74
2022/04/04 03:25:23;;;;;;;57.45;12.93;;;;;;;-1.97;76.98;96463.47;5105861;28;20054;-74
2022/04/04 03:27:51;;;;;;;136.32;25.23;;;;;;;-1.98;76.90;96457.31;5107354;28;20054;-76
2022/04/04 03:30:19;;;;;;;70.07;16.98;;;;;;;-1.98;77.06;96451.16;5105619;28;20047;-76
2022/04/04 03:32:47;;;;;;;67.25;11.27;;;;;;;-2.01;76.86;96459.63;5106984;28;20043;-74
2022/04/04 03:35:14;;;;;;;48.25;11.60;;;;;;;-2.01;77.05;96449.75;5106043;28;20051;-74
2022/04/04 03:37:42;;;;;;;69.63;13.25;;;;;;;-1.99;77.15;96463.66;5106476;28;20120;-74
2022/04/04 03:40:13;;;;;;;53.45;10.68;;;;;;;-1.99;77.42;96458.34;5109159;27;20050;-74
2022/04/04 03:42:40;;;;;;;76.55;12.55;;;;;;;-1.98;77.63;96454.63;5126577;27;20047;-74
2022/04/04 03:45:08;;;;;;;85.50;22.52;;;;;;;-1.97;77.64;96450.91;5126676;27;20051;-74
2022/04/04 03:47:34;;;;;;;44.17;11.25;;;;;;;-1.96;77.92;96449.06;5100314;28;20056;-75
2022/04/04 03:50:01;;;;;;;117.88;28.05;;;;;;;-1.94;77.94;96439.75;5106754;28;20055;-76
2022/04/04 03:52:27;;;;;;;79.60;18.90;;;;;;;-1.94;77.93;96439.75;5106026;28;20122;-74
2022/04/04 03:54:54;;;;;;;77.15;11.18;;;;;;;-1.93;77.90;96443.22;5106818;28;20719;-74
2022/04/04 03:57:22;;;;;;;78.00;13.15;;;;;;;-1.93;77.86;96446.75;5106202;28;20645;-74
2022/04/04 03:59:49;;;;;;;110.43;22.75;;;;;;;-1.90;77.92;96450.78;5106081;28;20055;-75
2022/04/04 04:02:15;;;;;;;77.85;20.27;;;;;;;-1.88;77.79;96449.50;5106825;28;20048;-74
2022/04/04 04:04:43;;;;;;;68.72;10.75;;;;;;;-1.88;77.71;96446.84;5105978;28;20055;-74
2022/04/04 04:07:10;;;;;;;56.88;10.55;;;;;;;-1.88;77.85;96446.84;5106679;28;20391;-74
2022/04/04 04:09:37;;;;;;;65.00;10.95;;;;;;;-1.89;77.90;96447.88;5105426;28;20043;-75
2022/04/04 04:12:05;;;;;;;76.10;11.30;;;;;;;-1.88;77.92;96449.50;5106159;28;20651;-74
2022/04/04 04:14:32;;;;;;;46.17;10.45;;;;;;;-1.90;78.00;96456.94;5106001;28;20064;-74
2022/04/04 04:16:59;;;;;;;66.65;12.15;;;;;;;-1.92;78.11;96453.69;5109891;27;20055;-75
2022/04/04 04:22:10;;;;;;;77.55;12.02;;;;;;;-1.93;78.10;96452.06;5105448;28;20092;-74
2022/04/04 04:24:37;;;;;;;60.35;13.30;;;;;;;-1.94;78.02;96450.44;5106779;28;20062;-74
2022/04/04 04:27:03;;;;;;;55.40;11.20;;;;;;;-1.94;78.17;96450.44;5106701;28;20048;-75
2022/04/04 04:29:30;;;;;;;93.15;13.38;;;;;;;-1.94;78.19;96455.78;5110706;28;20056;-74
2022/04/04 04:31:58;;;;;;;53.35;11.30;;;;;;;-1.95;78.20;96446.16;5109282;28;20055;-75
2022/04/04 04:34:24;;;;;;;92.70;17.00;;;;;;;-1.97;78.18;96445.59;5109722;28;20051;-75
2022/04/04 04:36:51;;;;;;;53.97;10.77;;;;;;;-1.97;78.21;96442.91;5109666;28;20051;-75
2022/04/04 04:39:17;;;;;;;88.88;13.50;;;;;;;-1.98;78.42;96449.31;5109358;28;20054;-74
2022/04/04 04:41:45;;;;;;;46.53;11.27;;;;;;;-1.97;78.42;96448.25;5110077;28;20052;-74
2022/04/04 04:44:12;;;;;;;66.85;12.93;;;;;;;-1.97;78.42;96452.78;5109407;28;20066;-75
2022/04/04 04:46:39;;;;;;;48.70;11.27;;;;;;;-1.98;78.54;96451.16;5113620;27;20051;-74
2022/04/04 04:49:06;;;;;;;78.18;11.82;;;;;;;-1.97;78.42;96456.25;5108894;28;20058;-75
2022/04/04 04:51:33;;;;;;;48.13;11.70;;;;;;;-1.98;78.28;96459.19;5110434;28;20043;-74
2022/04/04 04:54:00;;;;;;;68.82;16.63;;;;;;;-1.97;78.43;96450.13;5110196;28;20044;-74
2022/04/04 04:56:27;;;;;;;61.50;11.63;;;;;;;-1.98;78.42;96449.31;5109756;28;20047;-74
2022/04/04 04:58:54;;;;;;;66.93;11.98;;;;;;;-1.97;78.41;96450.91;5109346;28;20043;-74
2022/04/04 05:01:21;;;;;;;72.03;12.55;;;;;;;-1.97;78.34;96456.25;5109113;28;20043;-74
2022/04/04 05:03:49;;;;;;;68.80;11.43;;;;;;;-1.98;78.09;96453.84;5109336;28;20075;-74
2022/04/04 05:06:17;;;;;;;65.50;11.93;;;;;;;-1.98;78.20;96449.31;5109178;28;20051;-74
2022/04/04 05:08:44;;;;;;;45.83;10.43;;;;;;;-1.97;78.16;96456.25;5109626;28;20098;-74
2022/04/04 05:11:10;;;;;;;60.67;11.85;;;;;;;-1.96;77.97;96452.53;5107984;28;20071;-74
2022/04/04 05:13:37;;;;;;;59.50;11.27;;;;;;;-1.95;78.04;96448.81;5109904;28;20099;-74
2022/04/04 05:16:08;;;;;;;68.50;11.55;;;;;;;-1.92;77.97;96442.22;5111728;27;20043;-76
2022/04/04 05:18:35;;;;;;;61.20;10.30;;;;;;;-1.89;77.85;96447.06;5089161;28;20513;-76
2022/04/04 05:21:02;;;;;;;183.95;38.78;;;;;;;-1.89;77.73;96439.06;5087869;28;20051;-76
2022/04/04 05:23:30;;;;;;;86.72;12.07;;;;;;;-1.86;77.68;96446.59;5089155;28;20040;-75
2022/04/04 05:25:57;;;;;;;53.72;10.60;;;;;;;-1.84;77.54;96444.50;5088619;28;20155;-75
2022/04/04 05:28:23;;;;;;;72.03;11.43;;;;;;;-1.80;77.34;96450.97;5088120;28;20056;-74
2022/04/04 05:30:50;;;;;;;62.10;10.88;;;;;;;-1.77;77.07;96449.72;5088742;28;20051;-74
2022/04/04 05:33:16;;;;;;;65.32;11.38;;;;;;;-1.75;76.60;96453.75;5087542;28;20055;-76
2022/04/04 05:35:43;;;;;;;63.03;10.13;;;;;;;-1.72;76.35;96452.44;5088972;28;20055;-76
2022/04/04 05:38:11;;;;;;;46.50;9.35;;;;;;;-1.70;75.64;96447.69;5087105;28;20053;-74
2022/04/04 05:40:39;;;;;;;62.15;9.98;;;;;;;-1.72;75.06;96457.78;5088825;28;20056;-74
2022/04/04 05:43:06;;;;;;;49.55;8.88;;;;;;;-1.79;74.58;96452.59;5087405;28;20048;-76
2022/04/04 05:45:35;;;;;;;65.55;10.68;;;;;;;-1.73;74.59;96450.84;5090735;28;20048;-76
2022/04/04 05:48:02;;;;;;;57.80;10.27;;;;;;;-1.69;74.33;96455.47;5112438;27;20551;-75
2022/04/04 05:50:28;;;;;;;67.15;10.65;;;;;;;-1.64;74.50;96454.75;5108269;28;20074;-76
2022/04/04 05:52:55;;;;;;;44.90;8.77;;;;;;;-1.71;74.41;96454.91;5108633;28;20055;-76
2022/04/04 05:55:21;;;;;;;58.65;10.13;;;;;;;-1.75;74.39;96453.75;5107934;28;20040;-76
2022/04/04 05:57:49;;;;;;;48.97;9.48;;;;;;;-1.75;74.29;96460.94;5108594;28;20063;-76
2022/04/04 06:00:16;;;;;;;56.55;9.50;;;;;;;-1.86;74.54;96463.41;5108031;28;20466;-76
2022/04/04 06:02:46;;;;;;;60.63;14.57;;;;;;;-1.93;74.94;96457.41;5109108;28;20139;-76
2022/04/04 06:05:12;;;;;;;31.77;8.27;;;;;;;-1.80;75.03;96455.50;5107508;28;20055;-75
2022/04/04 06:07:40;;;;;;;61.65;10.40;;;;;;;-1.71;75.02;96460.25;5108917;28;20082;-75
2022/04/04 06:10:09;;;;;;;58.25;10.25;;;;;;;-1.78;75.18;96470.22;5107200;28;20502;-76
2022/04/04 06:12:38;;;;;;;86.75;24.30;;;;;;;-1.68;75.36;96465.09;5108364;28;20059;-74
2022/04/04 06:15:07;;;;;;;40.60;9.05;;;;;;;-1.53;75.04;96469.91;5108027;28;20048;-73
2022/04/04 06:17:34;;;;;;;48.05;10.82;;;;;;;-1.50;74.62;96469.44;5107716;28;20055;-73
2022/04/04 06:20:00;;;;;;;40.30;10.38;;;;;;;-1.42;74.69;96466.38;5108341;28;20525;-74
2022/04/04 06:22:27;;;;;;;36.05;8.75;;;;;;;-1.33;74.61;96472.97;5107124;28;20433;-74
2022/04/04 06:24:53;;;;;;;49.95;8.85;;;;;;;-1.25;74.07;96473.63;5108706;28;20055;-73
2022/04/04 06:27:20;;;;;;;34.28;8.18;;;;;;;-1.33;72.34;96470.28;5107737;28;20043;-73
2022/04/04 06:29:46;;;;;;;38.15;8.18;;;;;;;-1.32;71.76;96471.91;5108253;28;20051;-74
2022/04/04 06:32:15;;;;;;;35.83;8.65;;;;;;;-1.47;71.20;96482.31;5106943;28;20058;-73
2022/04/04 06:34:41;;;;;;;36.15;7.85;;;;;;;-1.42;71.06;96477.06;5107947;28;20719;-73
2022/04/04 06:37:10;;;;;;;36.85;8.20;;;;;;;-1.37;70.31;96479.84;5107417;28;20059;-73
2022/04/04 06:39:36;;;;;;;41.78;8.82;;;;;;;-1.22;70.68;96473.16;5107763;28;20058;-73
2022/04/04 06:42:03;;;;;;;45.17;8.57;;;;;;;-1.15;70.32;96469.28;5107290;28;20060;-73
2022/04/04 06:44:30;;;;;;;31.38;7.22;;;;;;;-1.05;68.72;96482.00;5107452;28;20838;-73
2022/04/04 06:46:56;;;;;;;25.48;6.95;;;;;;;-1.00;67.79;96476.75;5111500;27;20047;-73
2022/04/04 06:49:24;;;;;;;33.05;7.13;;;;;;;-0.91;67.66;96472.63;5105618;28;20172;-73
2022/04/04 06:51:51;;;;;;;28.48;7.32;;;;;;;-0.95;67.74;96473.34;5108009;28;20066;-73
2022/04/04 06:54:18;;;;;;;32.58;7.38;;;;;;;-1.08;67.83;96475.28;5106389;28;20043;-73
2022/04/04 06:56:45;;;;;;;50.80;8.52;;;;;;;-0.93;67.56;96473.94;5107310;28;20631;-73
2022/04/04 06:59:11;;;;;;;35.13;7.70;;;;;;;-1.01;65.97;96467.09;5106666;28;20100;-73
2022/04/04 07:01:38;;;;;;;37.80;8.68;;;;;;;-0.82;65.96;96462.34;5107145;28;20047;-73
2022/04/04 07:04:05;;;;;;;22.23;6.13;;;;;;;-0.63;66.44;96468.25;5107173;28;20048;-73
2022/04/04 07:06:33;;;;;;;28.83;6.78;;;;;;;-0.53;66.09;96465.72;5107364;28;20577;-73
2022/04/04 07:08:59;;;;;;;35.92;6.90;;;;;;;-0.50;63.53;96465.25;5108065;28;20051;-73
2022/04/04 07:11:26;;;;;;;25.08;6.50;;;;;;;-0.57;62.94;96459.28;5106107;28;20062;-73
2022/04/04 07:13:53;;;;;;;28.60;6.13;;;;;;;-0.51;61.51;96463.63;5107598;28;20060;-73
2022/04/04 07:16:19;;;;;;;28.75;6.88;;;;;;;-0.29;62.24;96461.81;5109799;27;20047;-73
2022/04/04 07:18:47;;;;;;;31.63;5.93;;;;;;;-0.16;59.05;96460.63;5107549;28;20058;-73
2022/04/04 07:21:13;;;;;;;26.45;5.68;;;;;;;-0.03;58.89;96459.47;5106264;28;20055;-73
2022/04/04 07:23:41;;;;;;;24.92;6.47;;;;;;;0.02;58.11;96461.41;5107299;28;20132;-73
2022/04/04 07:26:07;;;;;;;24.50;4.55;;;;;;;0.12;56.77;96456.19;5106796;28;20047;-73
2022/04/04 07:28:34;;;;;;;28.77;4.97;;;;;;;0.29;56.55;96446.22;5106959;28;20056;-74
2022/04/04 07:31:01;;;;;;;17.92;4.60;;;;;;;0.48;56.19;96454.75;5106927;28;20524;-73
2022/04/04 07:33:28;;;;;;;30.38;5.00;;;;;;;0.66;54.62;96453.59;5106541;28;20047;-73
2022/04/04 07:35:54;;;;;;;30.08;5.25;;;;;;;1.10;55.92;96445.41;5107431;28;20502;-73
2022/04/04 07:38:21;;;;;;;14.40;4.15;;;;;;;1.40;53.39;96450.22;5106245;28;20448;-73
2022/04/04 07:40:48;;;;;;;27.38;5.13;;;;;;;2.16;50.59;96448.00;5106821;28;20512;-73
2022/04/04 07:43:15;;;;;;;23.23;5.13;;;;;;;3.01;49.89;96448.50;5105909;28;20047;-73
2022/04/04 07:45:42;;;;;;;44.78;7.05;;;;;;;4.05;47.43;96445.47;5105024;28;20035;-72
2022/04/04 07:48:10;;;;;;;19.02;4.75;;;;;;;5.11;45.97;96451.41;5106061;28;20071;-72
2022/04/04 07:50:37;;;;;;;20.48;4.93;;;;;;;5.55;42.33;96445.16;5105904;28;20048;-73
2022/04/04 07:53:03;;;;;;;16.00;4.10;;;;;;;5.66;40.26;96449.38;5106227;28;20059;-73
2022/04/04 07:55:30;;;;;;;8.88;3.30;;;;;;;6.26;40.96;96444.47;5106180;28;20650;-73
2022/04/04 07:57:58;;;;;;;13.02;3.83;;;;;;;6.69;38.89;96445.31;5106699;28;20044;-73
2022/04/04 08:00:24;;;;;;;27.40;5.32;;;;;;;7.41;39.31;96444.25;5106197;28;20062;-73
2022/04/04 08:02:51;;;;;;;21.90;4.90;;;;;;;8.02;37.78;96444.03;5113852;28;20058;-73
2022/04/04 08:05:19;;;;;;;10.27;4.53;;;;;;;7.75;36.16;96446.69;5111947;28;20073;-72
2022/04/04 08:07:48;;;;;;;19.02;4.78;;;;;;;7.18;38.46;96437.84;5113399;28;20050;-73
2022/04/04 08:10:15;;;;;;;13.48;4.63;;;;;;;8.07;37.60;96440.44;5112200;28;20058;-73
2022/04/04 08:12:41;;;;;;;21.52;5.03;;;;;;;8.28;34.64;96432.72;5113010;28;20524;-73
2022/04/04 08:15:10;;;;;;;10.35;3.97;;;;;;;8.33;34.29;96433.41;5113018;27;20047;-74
2022/04/04 08:17:37;;;;;;;17.83;4.90;;;;;;;8.81;34.59;96426.75;5113449;28;20076;-74
2022/04/04 08:20:04;;;;;;;19.95;4.82;;;;;;;9.55;32.46;96424.53;5113350;28;20047;-73
2022/04/04 08:22:30;;;;;;;35.38;5.68;;;;;;;9.61;31.69;96419.78;5113881;28;20059;-74
2022/04/04 08:24:57;;;;;;;5.18;3.22;;;;;;;9.67;31.67;96419.31;5113269;28;20055;-73
2022/04/04 08:27:23;;;;;;;7.40;3.40;;;;;;;9.05;32.27;96430.03;5112344;28;20571;-73
2022/04/04 08:29:51;;;;;;;5.32;3.22;;;;;;;9.53;30.55;96424.03;5113372;28;20058;-74
2022/04/04 08:32:19;;;;;;;4.43;2.95;;;;;;;9.56;30.44;96423.41;5112802;28;20055;-73
2022/04/04 08:34:46;;;;;;;4.93;3.20;;;;;;;9.27;32.80;96415.66;5113740;28;20674;-73
2022/04/04 08:37:13;;;;;;;5.30;3.00;;;;;;;9.90;31.22;96411.94;5113006;28;20047;-74
2022/04/04 08:39:39;;;;;;;7.13;3.22;;;;;;;10.84;32.82;96406.38;5113243;28;20064;-73
2022/04/04 08:42:06;;;;;;;7.07;3.30;;;;;;;10.64;30.42;96402.31;5112559;28;20394;-74
2022/04/04 08:44:36;;;;;;;4.88;2.70;;;;;;;10.87;29.10;96403.00;5113132;28;20521;-74
2022/04/04 08:47:04;;;;;;;5.57;2.60;;;;;;;11.15;28.30;96407.03;5113240;27;20044;-74
2022/04/04 08:49:31;;;;;;;5.72;3.30;;;;;;;10.77;29.06;96406.03;5113047;28;20051;-74
2022/04/04 08:51:58;;;;;;;4.93;3.45;;;;;;;10.43;29.39;96402.09;5113483;28;20043;-74
2022/04/04 08:54:25;;;;;;;5.43;3.42;;;;;;;10.12;31.09;96405.63;5112592;28;20070;-74
2022/04/04 08:56:51;;;;;;;4.30;3.30;;;;;;;10.22;34.59;96399.09;5113243;28;20055;-74
2022/04/04 08:59:18;;;;;;;4.45;2.90;;;;;;;10.18;30.54;96401.69;5112442;28;20047;-74
2022/04/04 09:01:44;;;;;;;7.18;3.72;;;;;;;10.02;33.53;96399.66;5112503;27;20066;-74
2022/04/04 09:04:16;;;;;;;4.78;3.50;;;;;;;8.94;30.67;96406.94;5112534;28;20052;-74
2022/04/04 09:06:51;;;;;;;6.05;3.65;;;;;;;8.77;32.36;96402.16;5112833;28;20101;-74
2022/04/04 09:09:19;;;;;;;4.60;3.25;;;;;;;8.42;31.40;96406.41;5113327;27;20437;-74
2022/04/04 09:11:54;;;;;;;5.35;3.50;;;;;;;7.86;34.56;96393.91;5111666;28;20540;-75
2022/04/04 09:14:24;;;;;;;8.15;3.92;;;;;;;7.87;34.52;96384.66;5109185;28;20529;-75
2022/04/04 09:16:57;;;;;;;7.40;4.15;;;;;;;8.45;36.54;96386.00;5109377;28;20048;-78
2022/04/04 09:19:30;;;;;;;7.10;3.40;;;;;;;8.89;34.44;96377.19;5109819;28;20055;-74
2022/04/04 09:22:04;;;;;;;5.35;3.33;;;;;;;8.19;35.01;96377.53;5109529;28;20039;-75
2022/04/04 09:24:48;;;;;;;5.72;3.90;;;;;;;8.10;33.15;96374.75;5109092;28;20498;-75
2022/04/04 09:27:21;;;;;;;8.00;3.65;;;;;;;8.33;35.39;96376.44;5109427;28;20040;-75
2022/04/04 09:29:48;;;;;;;;;;;;;;;8.50;34.32;96370.41;5109333;28;20054;-75
2022/04/04 09:32:15;;;;;;;6.80;3.60;;;;;;;8.57;35.44;96370.81;5108984;28;19992;-74
2022/04/04 09:34:57;;;;;;;5.32;3.67;;;;;;;8.47;32.05;96360.19;5109173;28;20051;-75
2022/04/04 09:37:25;;;;;;;8.60;3.47;;;;;;;8.20;32.84;96360.19;5108872;28;20904;-75
2022/04/04 09:40:01;;;;;;;10.93;4.47;;;;;;;7.51;33.87;96355.47;5109001;28;20048;-74
2022/04/04 09:42:28;;;;;;;7.38;4.78;;;;;;;7.62;33.70;96355.31;5108607;28;20039;-76
2022/04/04 09:44:58;;;;;;;8.13;4.63;;;;;;;7.45;34.12;96351.25;5109849;28;20139;-75
2022/04/04 09:47:44;;;;;;;11.32;4.22;;;;;;;7.39;33.72;96352.47;5107655;28;20039;-74
2022/04/04 09:50:11;;;;;;;10.45;4.50;;;;;;;7.49;34.41;96346.88;5108693;28;20044;-76
2022/04/04 09:52:50;;;;;;;11.95;4.60;;;;;;;7.56;34.86;96341.84;5108926;28;20058;-74
2022/04/04 09:55:27;;;;;;;9.75;3.90;;;;;;;7.79;35.56;96333.88;5067898;28;20055;-76
2022/04/04 09:57:55;;;;;;;11.93;4.85;;;;;;;7.29;38.14;96325.53;5068940;28;20048;-74
2022/04/04 10:00:21;;;;;;;6.07;4.65;;;;;;;7.62;35.67;96328.22;5066899;28;20052;-76
2022/04/04 10:02:48;;;;;;;6.95;4.68;;;;;;;8.05;35.54;96320.59;5069021;28;20812;-74
2022/04/04 10:05:16;;;;;;;6.80;4.35;;;;;;;8.18;33.85;96316.25;5067432;28;20048;-74
2022/04/04 10:07:45;;;;;;;14.82;4.60;;;;;;;8.29;33.78;96302.19;5068868;28;20689;-74
2022/04/04 10:10:12;;;;;;;6.97;4.47;;;;;;;8.20;35.13;96305.94;5067142;28;20048;-76
2022/04/04 10:12:39;;;;;;;6.82;4.55;;;;;;;7.76;34.21;96300.00;5067884;28;20060;-74
2022/04/04 10:15:08;;;;;;;7.90;4.55;;;;;;;7.62;38.22;96291.06;5067471;28;20788;-76
2022/04/04 10:17:35;;;;;;;7.50;5.18;;;;;;;7.29;39.77;96288.41;5067980;28;20048;-75
2022/04/04 10:20:05;;;;;;;7.13;4.93;;;;;;;7.74;42.03;96282.47;5067395;28;20053;-75
2022/04/04 10:22:32;;;;;;;10.95;5.50;;;;;;;6.94;38.99;96284.44;5067600;28;20799;-74
2022/04/04 10:25:02;;;;;;;7.60;5.07;;;;;;;7.31;41.76;96269.19;5067076;28;20049;-74
2022/04/04 10:27:29;;;;;;;7.88;5.50;;;;;;;6.87;39.17;96281.28;5067139;28;20522;-74
2022/04/04 10:30:03;;;;;;;7.70;5.20;;;;;;;6.81;42.25;96268.94;5067520;28;20052;-74
2022/04/04 10:32:30;;;;;;;9.77;5.75;;;;;;;6.32;40.23;96281.06;5067248;28;20513;-74
2022/04/04 10:34:57;;;;;;;10.45;5.97;;;;;;;6.31;42.07;96263.22;5067672;28;20063;-75
2022/04/04 10:37:29;;;;;;;8.23;5.53;;;;;;;6.19;42.02;96260.94;5067284;28;20045;-74
2022/04/04 10:39:56;;;;;;;7.05;5.10;;;;;;;6.43;42.09;96250.06;5067472;28;20048;-75
2022/04/04 10:42:32;;;;;;;8.93;5.63;;;;;;;6.46;45.05;96257.56;5067289;28;20041;-74
2022/04/04 10:45:05;;;;;;;9.02;5.82;;;;;;;6.11;43.24;96244.56;5066683;28;20056;-75
2022/04/04 10:47:32;;;;;;;9.45;5.85;;;;;;;6.34;44.24;96242.91;5067578;28;20044;-74
2022/04/04 10:50:18;;;;;;;9.18;6.07;;;;;;;6.17;41.46;96235.31;5066626;28;20048;-74
2022/04/04 10:52:45;;;;;;;9.70;6.10;;;;;;;6.44;42.20;96229.22;5066568;28;20048;-74
2022/04/04 10:55:52;;;;;;;9.10;5.93;;;;;;;6.51;42.75;96233.16;5107043;28;20720;-74
2022/04/04 10:58:27;;;;;;;9.52;6.45;;;;;;;6.34;46.62;96213.16;5044596;28;20560;-78
2022/04/04 11:00:56;;;;;;;12.05;5.55;;;;;;;6.51;43.52;96218.81;5044659;28;20055;-76
2022/04/04 11:03:28;;;;;;;11.60;6.28;;;;;;;6.34;44.14;96219.38;5078945;28;20047;-72
2022/04/04 11:08:59;;;;;;;10.02;6.13;;;;;;;5.98;43.10;96209.06;5107795;28;20099;-73
2022/04/04 11:11:45;;;;;;;10.02;6.20;;;;;;;5.91;43.86;96200.53;5106981;28;20537;-76
2022/04/04 11:14:13;;;;;;;25.83;7.43;;;;;;;5.93;45.58;96197.53;5107952;28;20095;-75
2022/04/04 11:17:43;;;;;;;13.85;7.53;;;;;;;6.38;43.85;96193.34;5107280;28;20051;-74
2022/04/04 11:20:33;;;;;;;10.93;6.88;;;;;;;5.92;42.94;96191.31;5106223;28;20047;-77
2022/04/04 11:23:03;;;;;;;11.90;6.80;;;;;;;6.15;41.66;96183.41;5107554;28;20043;-75
2022/04/04 11:25:34;;;;;;;10.98;6.38;;;;;;;5.92;41.74;96183.22;5106707;28;20039;-75
2022/04/04 11:28:01;;;;;;;10.65;6.93;;;;;;;5.75;43.33;96174.78;5107803;28;20098;-74
2022/04/04 11:30:28;;;;;;;13.45;6.97;;;;;;;5.93;46.83;96167.81;5106515;28;20048;-74
2022/04/04 11:32:57;;;;;;;33.25;7.18;;;;;;;5.93;45.56;96168.59;5107280;28;20628;-75
2022/04/04 11:35:27;;;;;;;12.63;6.95;;;;;;;6.41;44.39;96170.31;5106219;28;20059;-73
2022/04/04 11:37:56;;;;;;;43.88;7.95;;;;;;;6.00;44.03;96176.34;5106672;28;20043;-76
2022/04/04 11:40:25;;;;;;;18.50;8.13;;;;;;;6.03;45.84;96164.94;5106241;28;20058;-73